createdAt,value
2022-12-24T00:00:44.609Z,100325.84
2022-12-24T00:03:12.578Z,100332.06
2022-12-24T00:05:40.468Z,100335.13
2022-12-24T00:08:08.455Z,100333.53
2022-12-24T00:10:36.363Z,100329.34
2022-12-24T00:13:05.906Z,100336.72
2022-12-24T00:15:33.776Z,100343.09
2022-12-24T00:18:01.663Z,100348.53
2022-12-24T00:20:29.908Z,100347.84
2022-12-24T00:22:58.202Z,100351.34
2022-12-24T00:25:26.066Z,100356.47
2022-12-24T00:27:53.933Z,100354.41
2022-12-24T00:30:23.382Z,100364.94
2022-12-24T00:32:51.321Z,100358.72
2022-12-24T00:35:19.237Z,100360.31
2022-12-24T00:37:48.847Z,100358.72
2022-12-24T00:40:16.988Z,100366.22
2022-12-24T00:42:45.207Z,100365.75
2022-12-24T00:45:14.137Z,100374.59
2022-12-24T00:47:44.088Z,100374.59
2022-12-24T00:50:12.155Z,100382.75
2022-12-24T00:52:40.113Z,100377.19
2022-12-24T00:55:09.262Z,100385.66
2022-12-24T00:57:37.251Z,100389.50
2022-12-24T01:00:06.782Z,100403.78
2022-12-24T01:02:34.792Z,100394.34
2022-12-24T01:05:12.021Z,100398.72
2022-12-24T01:07:42.199Z,100394.84
2022-12-24T01:10:12.634Z,100409.75
2022-12-24T01:12:40.864Z,100411.19
2022-12-24T01:15:09.566Z,100416.97
2022-12-24T01:17:37.674Z,100420.38
2022-12-24T01:20:09.353Z,100421.00
2022-12-24T01:22:37.538Z,100420.09
2022-12-24T01:25:06.185Z,100430.81
2022-12-24T01:27:34.095Z,100432.25
2022-12-24T01:30:02.247Z,100438.34
2022-12-24T01:32:30.565Z,100440.59
2022-12-24T01:34:58.756Z,100445.56
2022-12-24T01:37:28.300Z,100443.47
2022-12-24T01:40:16.987Z,100447.34
2022-12-24T01:43:05.922Z,100445.28
2022-12-24T01:45:47.065Z,100447.03
2022-12-24T01:48:23.340Z,100458.25
2022-12-24T01:50:56.545Z,100466.41
2022-12-24T01:53:26.047Z,100458.56
2022-12-24T01:55:56.142Z,100462.41
2022-12-24T01:58:26.170Z,100474.38
2022-12-24T02:00:54.167Z,100477.28
2022-12-24T02:03:22.612Z,100470.75
2022-12-24T02:05:53.541Z,100481.78
2022-12-24T02:08:21.692Z,100481.78
2022-12-24T02:10:51.897Z,100497.59
2022-12-24T02:13:22.472Z,100495.22
2022-12-24T02:16:07.302Z,100503.38
2022-12-24T02:18:42.270Z,100515.66
2022-12-24T02:21:49.408Z,100515.84
2022-12-24T02:24:55.642Z,100522.88
2022-12-24T02:27:34.892Z,100524.00
2022-12-24T02:30:15.547Z,100537.56
2022-12-24T02:32:59.454Z,100529.72
2022-12-24T02:35:35.959Z,100535.31
2022-12-24T02:38:09.077Z,100534.53
2022-12-24T02:40:41.915Z,100536.91
2022-12-24T02:43:14.874Z,100546.66
2022-12-24T02:45:47.440Z,100548.56
2022-12-24T02:48:18.577Z,100546.19
2022-12-24T02:51:02.537Z,100546.81
2022-12-24T02:53:31.294Z,100560.09
2022-12-24T02:56:16.957Z,100552.91
2022-12-24T02:58:57.142Z,100546.00
2022-12-24T03:01:39.722Z,100554.50
2022-12-24T03:04:16.588Z,100543.50
2022-12-24T03:06:51.523Z,100558.31
2022-12-24T03:09:26.721Z,100553.56
2022-12-24T03:12:00.672Z,100554.19
2022-12-24T03:14:30.661Z,100548.13
2022-12-24T03:17:00.621Z,100553.56
2022-12-24T03:19:28.945Z,100547.47
2022-12-24T03:21:59.326Z,100555.63
2022-12-24T03:24:27.295Z,100549.06
2022-12-24T03:26:55.257Z,100551.44
2022-12-24T03:29:23.312Z,100547.47
2022-12-24T03:31:54.492Z,100564.72
2022-12-24T03:34:24.013Z,100559.28
2022-12-24T03:36:52.499Z,100570.16
2022-12-24T03:39:20.318Z,100567.91
2022-12-24T03:41:48.347Z,100560.88
2022-12-24T03:44:16.293Z,100564.72
2022-12-24T03:46:44.247Z,100569.03
2022-12-24T03:49:12.047Z,100571.75
2022-12-24T03:51:41.417Z,100567.13
2022-12-24T03:54:09.193Z,100574.94
2022-12-24T03:56:37.037Z,100574.94
2022-12-24T03:59:04.865Z,100573.34
2022-12-24T04:01:32.791Z,100565.53
2022-12-24T04:04:00.677Z,100564.72
2022-12-24T04:06:28.567Z,100563.09
2022-12-24T04:08:59.288Z,100565.34
2022-12-24T04:11:27.075Z,100580.06
2022-12-24T04:13:54.961Z,100581.50
2022-12-24T04:16:22.869Z,100583.44
2022-12-24T04:18:50.938Z,100585.16
2022-12-24T04:21:18.852Z,100598.91
2022-12-24T04:23:47.961Z,100586.75
2022-12-24T04:26:17.757Z,100589.94
2022-12-24T04:28:45.543Z,100583.09
2022-12-24T04:31:16.107Z,100589.31
2022-12-24T04:33:44.339Z,100591.56
2022-12-24T04:36:16.936Z,100603.38
2022-12-24T04:38:45.189Z,100603.38
2022-12-24T04:41:23.785Z,100611.19
2022-12-24T04:43:53.871Z,100614.41
2022-12-24T04:46:23.900Z,100596.53
2022-12-24T04:48:54.044Z,100608.19
2022-12-24T04:51:22.288Z,100616.78
2022-12-24T04:53:50.463Z,100619.50
2022-12-24T04:56:22.531Z,100612.94
2022-12-24T04:58:50.926Z,100625.41
2022-12-24T05:01:20.698Z,100627.00
2022-12-24T05:03:49.293Z,100623.16
2022-12-24T05:06:20.699Z,100624.00
2022-12-24T05:08:49.637Z,100625.41
2022-12-24T05:11:19.797Z,100624.78
2022-12-24T05:13:48.356Z,100634.53
2022-12-24T05:16:18.817Z,100627.19
2022-12-24T05:18:46.778Z,100625.25
2022-12-24T05:21:17.873Z,100627.19
2022-12-24T05:24:03.664Z,100633.41
2022-12-24T05:26:37.476Z,100623.16
2022-12-24T05:29:06.674Z,100632.44
2022-12-24T05:31:36.045Z,100631.63
2022-12-24T05:34:04.050Z,100636.59
2022-12-24T05:36:31.987Z,100641.69
2022-12-24T05:39:00.172Z,100648.25
2022-12-24T05:41:28.120Z,100640.13
2022-12-24T05:43:57.407Z,100642.50
2022-12-24T05:46:26.683Z,100641.69
2022-12-24T05:48:54.526Z,100636.94
2022-12-24T05:51:24.101Z,100642.50
2022-12-24T05:53:52.845Z,100641.69
2022-12-24T05:56:22.840Z,100648.72
2022-12-24T05:58:51.107Z,100639.78
2022-12-24T06:01:20.830Z,100650.97
2022-12-24T06:03:49.676Z,100653.69
2022-12-24T06:06:21.127Z,100657.53
2022-12-24T06:08:49.737Z,100658.78
2022-12-24T06:11:19.756Z,100660.56
2022-12-24T06:13:47.853Z,100658.16
2022-12-24T06:16:18.538Z,100660.69
2022-12-24T06:18:48.042Z,100674.00
2022-12-24T06:21:16.719Z,100680.22
2022-12-24T06:23:46.031Z,100680.22
2022-12-24T06:26:15.652Z,100687.38
2022-12-24T06:28:44.513Z,100686.59
2022-12-24T06:31:15.775Z,100689.81
2022-12-24T06:33:44.701Z,100691.69
2022-12-24T06:36:18.161Z,100692.19
2022-12-24T06:38:46.866Z,100689.47
2022-12-24T06:41:15.142Z,100691.06
2022-12-24T06:43:45.760Z,100701.47
2022-12-24T06:46:13.834Z,100695.25
2022-12-24T06:48:41.769Z,100703.06
2022-12-24T06:51:09.666Z,100696.66
2022-12-24T06:53:39.072Z,100708.31
2022-12-24T06:56:08.467Z,100714.88
2022-12-24T06:58:37.350Z,100723.53
2022-12-24T07:01:08.502Z,100717.13
2022-12-24T07:03:36.744Z,100720.97
2022-12-24T07:06:04.793Z,100726.41
2022-12-24T07:08:34.293Z,100719.38
2022-12-24T07:11:03.648Z,100720.00
2022-12-24T07:13:32.220Z,100729.91
2022-12-24T07:16:00.616Z,100730.53
2022-12-24T07:18:29.189Z,100728.94
2022-12-24T07:20:57.326Z,100722.84
2022-12-24T07:23:25.709Z,100732.91
2022-12-24T07:25:53.574Z,100732.44
2022-12-24T07:28:27.740Z,100740.91
2022-12-24T07:30:56.289Z,100747.75
2022-12-24T07:33:24.467Z,100747.75
2022-12-24T07:36:00.323Z,100742.19
2022-12-24T07:38:28.628Z,100748.09
2022-12-24T07:40:57.268Z,100753.53
2022-12-24T07:43:27.114Z,100757.69
2022-12-24T07:45:56.798Z,100768.88
2022-12-24T07:48:24.657Z,100766.75
2022-12-24T07:50:52.806Z,100767.56
2022-12-24T07:53:21.146Z,100771.25
2022-12-24T07:55:48.941Z,100772.38
2022-12-24T07:58:16.746Z,100779.69
2022-12-24T08:00:46.023Z,100793.25
2022-12-24T08:03:18.698Z,100799.81
2022-12-24T08:05:47.156Z,100803.63
2022-12-24T08:08:15.164Z,100807.16
2022-12-24T08:10:44.030Z,100809.88
2022-12-24T08:13:11.920Z,100810.66
2022-12-24T08:15:40.171Z,100823.13
2022-12-24T08:18:09.804Z,100820.91
2022-12-24T08:20:39.463Z,100827.94
2022-12-24T08:23:08.388Z,100836.41
2022-12-24T08:25:36.950Z,100844.22
2022-12-24T08:28:05.056Z,100844.56
2022-12-24T08:30:32.975Z,100856.22
2022-12-24T08:33:00.970Z,100860.53
2022-12-24T08:35:30.339Z,100852.84
2022-12-24T08:37:58.413Z,100856.03
2022-12-24T08:40:26.473Z,100857.69
2022-12-24T08:42:54.322Z,100857.69
2022-12-24T08:45:22.621Z,100859.28
2022-12-24T08:47:50.557Z,100863.09
2022-12-24T08:50:18.576Z,100865.81
2022-12-24T08:52:47.824Z,100864.69
2022-12-24T08:55:15.635Z,100863.09
2022-12-24T08:57:43.607Z,100866.31
2022-12-24T09:00:14.542Z,100861.47
2022-12-24T09:02:42.491Z,100869.63
2022-12-24T09:05:10.986Z,100858.59
2022-12-24T09:07:38.755Z,100876.00
2022-12-24T09:10:09.913Z,100873.78
2022-12-24T09:12:38.223Z,100884.03
2022-12-24T09:15:08.332Z,100879.41
2022-12-24T09:17:36.340Z,100888.03
2022-12-24T09:20:04.984Z,100892.53
2022-12-24T09:22:32.754Z,100898.59
2022-12-24T09:25:00.522Z,100893.03
2022-12-24T09:27:31.305Z,100904.56
2022-12-24T09:29:59.164Z,100907.94
2022-12-24T09:32:27.242Z,100913.53
2022-12-24T09:34:55.147Z,100915.78
2022-12-24T09:37:23.061Z,100921.69
2022-12-24T09:39:50.894Z,100925.41
2022-12-24T09:42:29.740Z,100925.41
2022-12-24T09:45:04.533Z,100925.75
2022-12-24T09:47:39.694Z,100932.44
2022-12-24T09:50:25.781Z,100944.31
2022-12-24T09:52:54.733Z,100948.47
2022-12-24T09:55:28.395Z,100959.97
2022-12-24T09:57:59.162Z,100950.22
2022-12-24T10:00:30.558Z,100950.22
2022-12-24T10:02:59.020Z,100960.53
2022-12-24T10:05:38.962Z,100959.41
2022-12-24T10:08:19.765Z,100958.28
2022-12-24T10:10:55.349Z,100967.56
2022-12-24T10:13:35.836Z,100959.41
2022-12-24T10:16:17.802Z,100961.00
2022-12-24T10:18:56.854Z,100962.59
2022-12-24T10:21:33.707Z,100973.94
2022-12-24T10:24:08.077Z,100975.06
2022-12-24T10:26:54.073Z,100977.31
2022-12-24T10:29:26.139Z,100972.53
2022-12-24T10:32:00.473Z,100972.69
2022-12-24T10:34:34.899Z,100974.47
2022-12-24T10:37:04.558Z,100959.59
2022-12-24T10:39:32.480Z,100970.00
2022-12-24T10:42:02.655Z,100969.84
2022-12-24T10:44:34.508Z,100956.72
2022-12-24T10:47:06.650Z,100959.94
2022-12-24T10:49:41.511Z,100956.09
2022-12-24T10:52:13.879Z,100952.25
2022-12-24T10:55:06.583Z,100965.38
2022-12-24T10:57:35.983Z,100960.91
2022-12-24T11:00:06.365Z,100958.66
2022-12-24T11:02:37.847Z,100973.38
2022-12-24T11:05:27.860Z,100971.13
2022-12-24T11:08:02.285Z,100969.53
2022-12-24T11:10:31.067Z,100975.44
2022-12-24T11:13:27.652Z,100968.25
2022-12-24T11:15:47.531Z,100960.56
2022-12-24T11:18:17.180Z,100968.75
2022-12-24T11:20:52.185Z,100963.94
2022-12-24T11:23:20.619Z,100960.56
2022-12-24T11:25:51.197Z,100959.59
2022-12-24T11:28:23.305Z,100959.59
2022-12-24T11:31:03.920Z,100965.53
2022-12-24T11:33:46.133Z,100962.97
2022-12-24T11:36:14.962Z,100965.88
2022-12-24T11:38:42.860Z,100970.00
2022-12-24T11:41:12.983Z,100970.81
2022-12-24T11:43:46.294Z,100974.81
2022-12-24T11:46:17.699Z,100976.09
2022-12-24T11:48:47.973Z,100978.19
2022-12-24T11:51:25.496Z,100979.78
2022-12-24T11:54:05.338Z,100986.84
2022-12-24T11:56:40.770Z,100985.38
2022-12-24T11:59:20.039Z,100983.16
2022-12-24T12:01:55.698Z,100982.50
2022-12-24T12:04:29.045Z,100988.09
2022-12-24T12:07:00.902Z,100985.22
2022-12-24T12:09:32.544Z,100987.31
2022-12-24T12:12:06.315Z,100988.91
2022-12-24T12:14:39.344Z,100984.59
2022-12-24T12:17:17.491Z,100988.41
2022-12-24T12:19:50.547Z,100994.69
2022-12-24T12:22:29.836Z,100997.41
2022-12-24T12:25:01.101Z,101002.34
2022-12-24T12:27:35.129Z,100997.38
2022-12-24T12:30:04.814Z,101002.97
2022-12-24T12:32:42.137Z,100989.69
2022-12-24T12:35:22.127Z,100998.31
2022-12-24T12:37:57.495Z,101000.75
2022-12-24T12:40:44.001Z,101005.88
2022-12-24T12:43:21.583Z,101010.03
2022-12-24T12:45:56.299Z,101017.88
2022-12-24T12:48:47.629Z,101018.50
2022-12-24T12:51:25.670Z,101023.97
2022-12-24T12:54:13.151Z,101028.59
2022-12-24T12:56:47.060Z,101023.16
2022-12-24T12:59:21.766Z,101020.78
2022-12-24T13:01:58.283Z,101020.13
2022-12-24T13:04:55.964Z,101023.66
2022-12-24T13:07:52.114Z,101035.50
2022-12-24T13:10:44.079Z,101038.69
2022-12-24T13:13:31.815Z,101040.31
2022-12-24T13:16:13.322Z,101038.53
2022-12-24T13:19:00.237Z,101034.22
2022-12-24T13:21:31.293Z,101036.75
2022-12-24T13:24:19.813Z,101043.50
2022-12-24T13:27:06.702Z,101045.75
2022-12-24T13:29:52.820Z,101051.03
2022-12-24T13:32:49.603Z,101045.13
2022-12-24T13:35:59.108Z,101056.63
2022-12-24T13:38:43.646Z,101054.22
2022-12-24T13:41:50.444Z,101047.66
2022-12-24T13:44:21.276Z,101050.22
2022-12-24T13:46:52.233Z,101054.22
2022-12-24T13:49:22.900Z,101048.78
2022-12-24T13:51:51.107Z,101054.22
2022-12-24T13:54:25.543Z,101050.88
2022-12-24T13:56:55.103Z,101057.94
2022-12-24T13:59:38.670Z,101053.91
2022-12-24T14:02:19.606Z,101045.72
2022-12-24T14:04:52.401Z,101053.75
2022-12-24T14:07:21.679Z,101069.31
2022-12-24T14:09:52.149Z,101070.72
2022-12-24T14:12:51.699Z,101077.28
2022-12-24T14:15:53.202Z,101074.44
2022-12-24T14:18:23.620Z,101079.22
2022-12-24T14:20:53.916Z,101077.16
2022-12-24T14:23:32.787Z,101089.31
2022-12-24T14:26:02.518Z,101083.88
2022-12-24T14:28:39.486Z,101086.72
2022-12-24T14:31:14.900Z,101089.94
2022-12-24T14:33:43.254Z,101100.81
2022-12-24T14:36:13.813Z,101111.72
2022-12-24T14:38:43.595Z,101111.09
2022-12-24T14:41:31.334Z,101109.50
2022-12-24T14:44:09.624Z,101110.59
2022-12-24T14:46:44.021Z,101111.09
2022-12-24T14:49:24.106Z,101104.03
2022-12-24T14:52:04.509Z,101116.03
2022-12-24T14:54:38.911Z,101112.22
2022-12-24T14:57:21.644Z,101118.59
2022-12-24T14:59:53.307Z,101111.22
2022-12-24T15:02:44.377Z,101119.06
2022-12-24T15:05:16.349Z,101126.09
2022-12-24T15:07:48.692Z,101137.63
2022-12-24T15:10:27.258Z,101134.06
2022-12-24T15:12:57.179Z,101137.63
2022-12-24T15:15:26.463Z,101144.47
2022-12-24T15:17:55.689Z,101153.75
2022-12-24T15:20:26.973Z,101154.88
2022-12-24T15:22:57.337Z,101154.88
2022-12-24T15:25:28.103Z,101158.72
2022-12-24T15:27:56.298Z,101160.94
2022-12-24T15:30:28.899Z,101167.03
2022-12-24T15:32:58.998Z,101172.13
2022-12-24T15:35:55.895Z,101177.84
2022-12-24T15:38:27.948Z,101174.31
2022-12-24T15:40:56.314Z,101175.56
2022-12-24T15:43:24.750Z,101191.22
2022-12-24T15:45:54.572Z,101187.22
2022-12-24T15:48:25.687Z,101188.13
2022-12-24T15:50:56.630Z,101185.53
2022-12-24T15:53:29.594Z,101188.34
2022-12-24T15:56:03.731Z,101193.94
2022-12-24T15:58:33.721Z,101199.97
2022-12-24T16:01:23.301Z,101187.94
2022-12-24T16:04:00.469Z,101189.97
2022-12-24T16:06:29.480Z,101190.59
2022-12-24T16:08:58.887Z,101196.97
2022-12-24T16:11:34.631Z,101198.38
2022-12-24T16:14:11.978Z,101194.66
2022-12-24T16:16:43.993Z,101186.66
2022-12-24T16:19:19.564Z,101178.63
2022-12-24T16:21:51.408Z,101186.28
2022-12-24T16:24:23.765Z,101185.28
2022-12-24T16:26:51.956Z,101188.94
2022-12-24T16:29:20.470Z,101204.22
2022-12-24T16:31:52.937Z,101207.06
2022-12-24T16:34:30.113Z,101205.06
2022-12-24T16:36:59.234Z,101209.69
2022-12-24T16:39:31.190Z,101213.03
2022-12-24T16:42:18.429Z,101219.06
2022-12-24T16:44:46.993Z,101209.13
2022-12-24T16:47:24.998Z,101214.97
2022-12-24T16:49:53.275Z,101214.75
2022-12-24T16:52:23.426Z,101230.88
2022-12-24T16:54:51.595Z,101232.06
2022-12-24T16:57:20.193Z,101223.72
2022-12-24T16:59:48.332Z,101231.66
2022-12-24T17:02:19.991Z,101234.47
2022-12-24T17:04:49.012Z,101231.84
2022-12-24T17:07:19.801Z,101242.53
2022-12-24T17:09:47.629Z,101242.31
2022-12-24T17:12:15.979Z,101242.13
2022-12-24T17:14:43.985Z,101234.88
2022-12-24T17:17:23.807Z,101238.78
2022-12-24T17:19:52.161Z,101244.50
2022-12-24T17:22:20.300Z,101228.63
2022-12-24T17:24:48.656Z,101233.06
2022-12-24T17:27:16.896Z,101239.03
2022-12-24T17:29:44.832Z,101237.25
2022-12-24T17:32:12.652Z,101232.22
2022-12-24T17:34:42.483Z,101228.97
2022-12-24T17:37:10.468Z,101242.03
2022-12-24T17:39:38.405Z,101237.22
2022-12-24T17:42:06.487Z,101237.78
2022-12-24T17:44:34.609Z,101238.41
2022-12-24T17:47:05.122Z,101235.75
2022-12-24T17:49:33.771Z,101230.94
2022-12-24T17:52:04.797Z,101234.22
2022-12-24T17:54:32.791Z,101241.38
2022-12-24T17:57:00.643Z,101226.47
2022-12-24T17:59:28.995Z,101239.53
2022-12-24T18:01:57.036Z,101242.31
2022-12-24T18:04:24.884Z,101252.97
2022-12-24T18:06:57.842Z,101260.06
2022-12-24T18:09:31.492Z,101263.34
2022-12-24T18:11:59.366Z,101259.13
2022-12-24T18:14:28.262Z,101244.25
2022-12-24T18:16:56.058Z,101252.16
2022-12-24T18:19:24.062Z,101243.03
2022-12-24T18:21:52.115Z,101241.38
2022-12-24T18:24:20.485Z,101249.31
2022-12-24T18:26:49.902Z,101247.19
2022-12-24T18:29:18.409Z,101243.97
2022-12-24T18:31:46.321Z,101255.09
2022-12-24T18:34:16.250Z,101252.97
2022-12-24T18:36:46.239Z,101244.31
2022-12-24T18:39:17.577Z,101249.25
2022-12-24T18:41:45.405Z,101252.25
2022-12-24T18:44:18.108Z,101250.91
2022-12-24T18:46:48.945Z,101244.97
2022-12-24T18:49:16.840Z,101239.06
2022-12-24T18:51:44.682Z,101252.09
2022-12-24T18:54:12.611Z,101259.69
2022-12-24T18:56:40.496Z,101256.47
2022-12-24T18:59:08.352Z,101247.84
2022-12-24T19:01:37.736Z,101246.25
2022-12-24T19:04:05.868Z,101240.28
2022-12-24T19:06:33.800Z,101241.38
2022-12-24T19:09:02.108Z,101244.69
2022-12-24T19:11:32.509Z,101250.38
2022-12-24T19:14:00.646Z,101246.34
2022-12-24T19:16:28.949Z,101236.13
2022-12-24T19:18:58.824Z,101233.69
2022-12-24T19:21:26.935Z,101242.69
2022-12-24T19:23:54.903Z,101238.94
2022-12-24T19:26:23.393Z,101245.75
2022-12-24T19:28:51.931Z,101239.81
2022-12-24T19:31:22.408Z,101244.44
2022-12-24T19:33:52.516Z,101254.72
2022-12-24T19:36:25.718Z,101254.22
2022-12-24T19:38:54.061Z,101258.03
2022-12-24T19:41:25.423Z,101254.50
2022-12-24T19:43:55.541Z,101261.81
2022-12-24T19:46:25.426Z,101260.22
2022-12-24T19:48:55.023Z,101254.81
2022-12-24T19:51:25.841Z,101256.69
2022-12-24T19:53:55.155Z,101255.88
2022-12-24T19:56:24.640Z,101253.16
2022-12-24T19:58:55.529Z,101254.25
2022-12-24T20:01:25.707Z,101239.13
2022-12-24T20:03:54.784Z,101244.84
2022-12-24T20:06:27.569Z,101248.84
2022-12-24T20:09:00.260Z,101243.16
2022-12-24T20:11:29.527Z,101256.41
2022-12-24T20:13:59.371Z,101267.75
2022-12-24T20:16:27.972Z,101262.84
2022-12-24T20:18:57.479Z,101268.72
2022-12-24T20:21:27.612Z,101264.34
2022-12-24T20:23:55.765Z,101268.59
2022-12-24T20:26:26.758Z,101258.78
2022-12-24T20:28:55.095Z,101258.72
2022-12-24T20:31:24.786Z,101267.91
2022-12-24T20:33:53.815Z,101270.81
2022-12-24T20:36:23.468Z,101268.34
2022-12-24T20:38:53.035Z,101271.56
2022-12-24T20:41:23.878Z,101260.72
2022-12-24T20:43:52.039Z,101269.34
2022-12-24T20:46:22.246Z,101274.78
2022-12-24T20:48:50.591Z,101274.47
2022-12-24T20:51:24.296Z,101279.88
2022-12-24T20:53:55.657Z,101277.97
2022-12-24T20:56:23.972Z,101276.91
2022-12-24T20:58:52.578Z,101275.81
2022-12-24T21:01:24.799Z,101277.41
2022-12-24T21:03:53.595Z,101293.66
2022-12-24T21:06:21.988Z,101302.28
2022-12-24T21:08:51.278Z,101293.06
2022-12-24T21:11:38.776Z,101296.59
2022-12-24T21:14:07.057Z,101296.88
2022-12-24T21:16:36.197Z,101293.88
2022-12-24T21:19:05.155Z,101303.34
2022-12-24T21:21:34.724Z,101303.84
2022-12-24T21:24:03.121Z,101305.75
2022-12-24T21:26:32.395Z,101293.50
2022-12-24T21:29:00.328Z,101289.69
2022-12-24T21:31:28.601Z,101292.16
2022-12-24T21:33:56.850Z,101286.72
2022-12-24T21:36:25.326Z,101289.13
2022-12-24T21:38:54.065Z,101282.13
2022-12-24T21:41:24.013Z,101271.28
2022-12-24T21:43:53.503Z,101274.19
2022-12-24T21:46:25.076Z,101273.38
2022-12-24T21:49:11.740Z,101271.19
2022-12-24T21:51:40.127Z,101266.88
2022-12-24T21:54:30.436Z,101261.44
2022-12-24T21:57:17.232Z,101261.69
2022-12-24T21:59:46.928Z,101260.28
2022-12-24T22:02:16.409Z,101254.81
2022-12-24T22:04:44.771Z,101233.13
2022-12-24T22:07:39.331Z,101235.34
2022-12-24T22:10:26.126Z,101241.25
2022-12-24T22:12:54.600Z,101235.84
2022-12-24T22:15:24.015Z,101228.81
2022-12-24T22:17:52.053Z,101228.81
2022-12-24T22:20:20.001Z,101210.13
2022-12-24T22:22:48.548Z,101212.56
2022-12-24T22:25:16.737Z,101202.28
2022-12-24T22:27:44.707Z,101210.34
2022-12-24T22:30:13.269Z,101203.31
2022-12-24T22:32:42.545Z,101206.53
2022-12-24T22:35:10.714Z,101202.72
2022-12-24T22:37:38.727Z,101195.69
2022-12-24T22:40:07.836Z,101199.53
2022-12-24T22:42:35.791Z,101197.31
2022-12-24T22:45:03.660Z,101204.34
2022-12-24T22:47:31.893Z,101202.16
2022-12-24T22:50:02.127Z,101200.25
2022-12-24T22:52:33.866Z,101203.16
2022-12-24T22:55:02.395Z,101203.16
2022-12-24T22:57:30.485Z,101201.53
2022-12-24T22:59:58.393Z,101205.38
2022-12-24T23:02:28.671Z,101213.00
2022-12-24T23:04:57.691Z,101211.38
2022-12-24T23:07:26.840Z,101211.97
2022-12-24T23:09:54.719Z,101209.53
2022-12-24T23:12:42.602Z,101212.56
2022-12-24T23:15:10.349Z,101215.84
2022-12-24T23:17:38.220Z,101201.78
2022-12-24T23:20:09.320Z,101204.50
2022-12-24T23:22:38.867Z,101205.59
2022-12-24T23:25:07.179Z,101202.91
2022-12-24T23:27:35.110Z,101205.59
2022-12-24T23:30:03.233Z,101207.81
2022-12-24T23:32:31.138Z,101210.53
2022-12-24T23:34:58.987Z,101213.81
2022-12-24T23:37:34.586Z,101229.56
2022-12-24T23:40:05.244Z,101236.06
2022-12-24T23:42:33.251Z,101224.72
2022-12-24T23:45:00.984Z,101226.34
2022-12-24T23:47:28.830Z,101234.47
2022-12-24T23:49:56.872Z,101236.34
2022-12-24T23:52:24.770Z,101235.53
2022-12-24T23:54:52.647Z,101245.31
2022-12-24T23:57:21.829Z,101248.00
2022-12-24T23:59:49.751Z,101250.72
